Time;durP1;ratioP1;P1;durP2;ratioP2;P2;SDS_P1;SDS_P2;PMS_P1;PMS_P2;Temp;Humidity;BMP_temperature;BMP_pressure;BME280_temperature;BME280_humidity;BME280_pressure;Samples;Min_cycle;Max_cycle;Signal;HPM_P1;HPM_P2
2022/08/28 00:01:18;;;;;;;17.15;4.28;;;;;;;;;;2378965;56;21051;-83
2022/08/28 00:03:45;;;;;;;14.55;4.20;;;;;;;;;;2632444;52;21035;-84
2022/08/28 00:06:12;;;;;;;14.25;4.35;;;;;;;;;;2632098;52;21042;-84
2022/08/28 00:08:39;;;;;;;12.50;4.05;;;;;;;;;;2378957;56;21016;-84
2022/08/28 00:11:06;;;;;;;22.02;4.72;;;;;;;;;;2632285;52;21081;-84
2022/08/28 00:13:33;;;;;;;14.98;3.90;;;;;;;;;;2379457;56;21051;-85
2022/08/28 00:16:00;;;;;;;12.32;4.55;;;;;;;;;;2379240;56;21031;-84
2022/08/28 00:18:27;;;;;;;16.33;4.72;;;;;;;;;;2379458;56;21515;-84
2022/08/28 00:20:55;;;;;;;10.70;3.95;;;;;;;;;;2632605;52;21594;-85
2022/08/28 00:23:24;;;;;;;10.75;3.67;;;;;;;;;;2379069;56;21015;-84
2022/08/28 00:25:51;;;;;;;15.77;4.05;;;;;;;;;;2378983;56;21030;-84
2022/08/28 00:28:18;;;;;;;14.80;4.90;;;;;;;;;;2632266;52;21014;-84
2022/08/28 00:30:47;;;;;;;19.58;5.12;;;;;;;;;;2378965;56;21086;-84
2022/08/28 00:33:17;;;;;;;19.52;5.03;;;;;;;;;;2632918;52;21023;-84
2022/08/28 00:35:44;;;;;;;15.77;4.07;;;;;;;;;;2378917;56;21059;-84
2022/08/28 00:38:11;;;;;;;13.00;4.20;;;;;;;;;;2379115;56;21034;-84
2022/08/28 00:40:39;;;;;;;11.98;3.92;;;;;;;;;;2632318;52;21039;-84
2022/08/28 00:43:07;;;;;;;12.37;4.10;;;;;;;;;;2379773;56;21586;-84
2022/08/28 00:45:35;;;;;;;12.05;3.87;;;;;;;;;;2631928;52;21642;-84
2022/08/28 00:48:02;;;;;;;14.43;4.05;;;;;;;;;;2379009;56;21776;-84
2022/08/28 00:52:04;;;;;;;11.35;3.30;;;;;;;;;;2632555;52;21066;-84
2022/08/28 00:54:32;;;;;;;17.90;4.12;;;;;;;;;;2632657;52;21081;-84
2022/08/28 00:57:00;;;;;;;17.30;4.50;;;;;;;;;;2632192;52;21023;-84
2022/08/28 01:01:57;;;;;;;17.37;4.35;;;;;;;;;;2485743;53;21093;-83
2022/08/28 01:04:25;;;;;;;14.23;4.37;;;;;;;;;;2416091;53;21569;-82
2022/08/28 01:06:54;;;;;;;19.95;4.62;;;;;;;;;;2368909;56;21042;-81
2022/08/28 01:09:22;;;;;;;15.32;4.60;;;;;;;;;;2372039;53;21094;-81
2022/08/28 01:11:50;;;;;;;18.60;4.35;;;;;;;;;;2376274;53;21071;-81
2022/08/28 01:14:21;;;;;;;15.38;5.32;;;;;;;;;;2369610;56;21199;-82
2022/08/28 01:16:51;;;;;;;17.40;4.12;;;;;;;;;;2369524;56;21093;-82
2022/08/28 01:19:21;;;;;;;14.07;4.20;;;;;;;;;;2369714;56;21123;-82
2022/08/28 01:21:52;;;;;;;13.35;3.83;;;;;;;;;;2368390;56;21068;-82
2022/08/28 01:24:20;;;;;;;14.50;4.07;;;;;;;;;;2369770;56;21536;-82
2022/08/28 01:26:47;;;;;;;11.68;3.78;;;;;;;;;;2369194;54;21041;-81
2022/08/28 01:29:14;;;;;;;20.58;5.18;;;;;;;;;;2537023;53;21501;-81
2022/08/28 01:31:41;;;;;;;16.98;5.05;;;;;;;;;;2369797;56;21537;-81
2022/08/28 01:34:11;;;;;;;15.52;3.85;;;;;;;;;;2369800;54;21084;-81
2022/08/28 01:36:38;;;;;;;17.35;4.57;;;;;;;;;;2400350;53;21087;-80
2022/08/28 01:39:08;;;;;;;17.05;4.40;;;;;;;;;;2368694;56;21103;-81
2022/08/28 01:41:37;;;;;;;16.02;5.22;;;;;;;;;;2405727;53;21064;-81
2022/08/28 01:44:05;;;;;;;13.88;4.25;;;;;;;;;;2369759;56;21044;-81
2022/08/28 01:46:32;;;;;;;12.55;3.70;;;;;;;;;;2369031;54;21183;-81
2022/08/28 01:48:59;;;;;;;16.12;5.82;;;;;;;;;;2369915;56;21032;-81
2022/08/28 01:51:26;;;;;;;14.32;4.18;;;;;;;;;;2369517;56;21175;-81
2022/08/28 01:53:53;;;;;;;14.70;4.12;;;;;;;;;;2368347;56;21603;-80
2022/08/28 01:56:20;;;;;;;12.88;3.75;;;;;;;;;;2375274;53;21104;-81
2022/08/28 01:58:47;;;;;;;19.87;4.78;;;;;;;;;;2386767;53;21040;-81
2022/08/28 02:01:15;;;;;;;15.13;4.05;;;;;;;;;;2369607;56;21556;-82
2022/08/28 02:03:43;;;;;;;18.42;5.12;;;;;;;;;;2369427;56;21029;-80
2022/08/28 02:06:11;;;;;;;9.02;3.67;;;;;;;;;;2373853;53;21175;-81
2022/08/28 02:08:38;;;;;;;15.45;5.35;;;;;;;;;;2387444;52;21115;-82
2022/08/28 02:11:06;;;;;;;14.82;4.65;;;;;;;;;;2368843;56;21025;-81
2022/08/28 02:13:33;;;;;;;19.33;4.93;;;;;;;;;;2369213;56;21041;-81
2022/08/28 02:16:00;;;;;;;15.25;4.68;;;;;;;;;;2368800;56;21561;-81
2022/08/28 02:18:27;;;;;;;15.70;4.37;;;;;;;;;;2369709;56;21032;-81
2022/08/28 02:20:54;;;;;;;15.27;4.47;;;;;;;;;;2368982;56;21545;-81
2022/08/28 02:23:21;;;;;;;20.70;5.00;;;;;;;;;;2369781;56;21036;-83
2022/08/28 02:25:48;;;;;;;16.00;4.32;;;;;;;;;;2369352;56;21060;-82
2022/08/28 02:28:15;;;;;;;12.57;4.62;;;;;;;;;;2369223;56;21605;-80
2022/08/28 02:30:42;;;;;;;17.58;4.37;;;;;;;;;;2402463;53;21049;-82
2022/08/28 02:33:10;;;;;;;14.93;5.35;;;;;;;;;;2375149;53;21152;-81
2022/08/28 02:35:39;;;;;;;14.75;4.60;;;;;;;;;;2369110;54;21060;-81
2022/08/28 02:38:06;;;;;;;14.50;4.85;;;;;;;;;;2369754;52;21088;-81
2022/08/28 02:40:33;;;;;;;20.00;4.95;;;;;;;;;;2369774;53;21691;-81
2022/08/28 02:43:00;;;;;;;17.25;4.65;;;;;;;;;;2369402;56;21104;-81
2022/08/28 02:45:27;;;;;;;24.40;4.53;;;;;;;;;;2369083;54;21547;-80
2022/08/28 02:47:55;;;;;;;9.90;3.65;;;;;;;;;;2369538;56;21044;-81
2022/08/28 02:50:23;;;;;;;10.73;4.43;;;;;;;;;;2369671;53;21048;-81
2022/08/28 02:52:51;;;;;;;17.05;4.22;;;;;;;;;;2369315;56;21112;-81
2022/08/28 02:55:18;;;;;;;15.75;4.57;;;;;;;;;;2369029;56;21048;-81
2022/08/28 02:57:46;;;;;;;16.00;4.28;;;;;;;;;;2369468;56;21028;-81
2022/08/28 03:00:15;;;;;;;10.20;5.10;;;;;;;;;;2369654;56;21525;-81
2022/08/28 03:02:44;;;;;;;13.02;4.20;;;;;;;;;;2369568;56;21553;-81
2022/08/28 03:05:12;;;;;;;13.77;4.12;;;;;;;;;;2369819;56;21056;-81
2022/08/28 03:07:39;;;;;;;19.67;4.62;;;;;;;;;;2369490;56;21038;-81
2022/08/28 03:10:07;;;;;;;10.15;4.10;;;;;;;;;;2370074;56;21131;-81
2022/08/28 03:12:34;;;;;;;11.88;4.18;;;;;;;;;;2368838;56;21159;-81
2022/08/28 03:15:02;;;;;;;15.90;4.18;;;;;;;;;;2412609;53;21055;-82
2022/08/28 03:17:30;;;;;;;17.42;5.00;;;;;;;;;;2368740;56;21028;-82
2022/08/28 03:19:57;;;;;;;15.35;3.83;;;;;;;;;;2371586;53;21035;-82
2022/08/28 03:25:12;;;;;;;13.18;4.10;;;;;;;;;;2370035;56;21032;-82
2022/08/28 03:27:39;;;;;;;11.88;4.10;;;;;;;;;;2369707;56;21048;-81
2022/08/28 03:30:07;;;;;;;12.77;4.45;;;;;;;;;;2370091;55;21079;-82
2022/08/28 03:32:34;;;;;;;16.10;4.25;;;;;;;;;;2369728;56;21080;-82
2022/08/28 03:35:01;;;;;;;18.58;5.22;;;;;;;;;;2369767;56;21036;-82
2022/08/28 03:37:28;;;;;;;20.25;5.35;;;;;;;;;;2369080;56;21103;-82
2022/08/28 03:39:55;;;;;;;11.80;4.12;;;;;;;;;;2369322;56;21044;-81
2022/08/28 03:42:22;;;;;;;19.67;4.32;;;;;;;;;;2369674;56;21120;-82
2022/08/28 03:44:50;;;;;;;16.95;4.62;;;;;;;;;;2369607;56;21029;-80
2022/08/28 03:47:17;;;;;;;11.65;4.15;;;;;;;;;;2380432;53;21406;-79
2022/08/28 03:49:44;;;;;;;12.80;3.85;;;;;;;;;;2411378;53;21100;-82
2022/08/28 03:52:11;;;;;;;17.87;5.00;;;;;;;;;;2369544;54;21064;-82
2022/08/28 03:54:38;;;;;;;14.32;4.50;;;;;;;;;;2386911;53;21096;-81
2022/08/28 03:57:06;;;;;;;19.08;4.62;;;;;;;;;;2369619;56;21036;-82
2022/08/28 03:59:33;;;;;;;17.58;4.15;;;;;;;;;;2369855;56;21123;-81
2022/08/28 04:02:00;;;;;;;15.30;4.85;;;;;;;;;;2369578;56;21111;-81
2022/08/28 04:04:27;;;;;;;14.45;4.05;;;;;;;;;;2420515;53;21052;-80
2022/08/28 04:06:54;;;;;;;12.93;3.62;;;;;;;;;;2368935;56;21140;-81
2022/08/28 04:09:21;;;;;;;12.70;4.60;;;;;;;;;;2369828;56;21036;-82
2022/08/28 04:11:48;;;;;;;15.70;4.50;;;;;;;;;;2375352;53;21104;-83
2022/08/28 04:14:15;;;;;;;14.15;4.45;;;;;;;;;;2378521;53;21071;-82
2022/08/28 04:16:42;;;;;;;21.15;4.22;;;;;;;;;;2369135;56;21096;-81
2022/08/28 04:19:09;;;;;;;18.05;6.43;;;;;;;;;;2369477;56;21032;-81
2022/08/28 04:21:36;;;;;;;16.25;4.45;;;;;;;;;;2369306;56;22465;-81
2022/08/28 04:24:03;;;;;;;11.73;3.58;;;;;;;;;;2368717;56;21127;-82
2022/08/28 04:26:35;;;;;;;14.43;4.25;;;;;;;;;;2368252;54;21318;-81
2022/08/28 04:29:03;;;;;;;12.13;5.10;;;;;;;;;;2369166;56;21118;-81
2022/08/28 04:31:30;;;;;;;18.45;5.07;;;;;;;;;;2369152;56;21087;-82
2022/08/28 04:33:58;;;;;;;14.23;4.40;;;;;;;;;;2374433;53;21556;-82
2022/08/28 04:36:25;;;;;;;17.70;4.65;;;;;;;;;;2369106;56;21068;-82
2022/08/28 04:38:52;;;;;;;17.58;4.43;;;;;;;;;;2369785;56;21577;-81
2022/08/28 04:41:19;;;;;;;12.70;4.40;;;;;;;;;;2369525;56;21188;-81
2022/08/28 04:43:46;;;;;;;11.30;3.58;;;;;;;;;;2370026;56;21044;-81
2022/08/28 04:46:15;;;;;;;19.52;4.43;;;;;;;;;;2368867;56;21028;-81
2022/08/28 04:48:42;;;;;;;19.58;3.58;;;;;;;;;;2369072;56;21076;-81
2022/08/28 04:51:11;;;;;;;13.52;3.92;;;;;;;;;;2369349;56;21119;-80
2022/08/28 04:53:38;;;;;;;10.25;4.20;;;;;;;;;;2369688;56;21048;-81
2022/08/28 04:56:07;;;;;;;10.63;3.62;;;;;;;;;;2369270;56;21020;-81
2022/08/28 04:58:34;;;;;;;12.30;3.92;;;;;;;;;;2369163;56;22230;-81
2022/08/28 05:01:05;;;;;;;15.80;4.47;;;;;;;;;;2375014;53;21052;-81
2022/08/28 05:03:32;;;;;;;18.80;5.05;;;;;;;;;;2369703;56;21063;-81
2022/08/28 05:05:59;;;;;;;13.45;4.87;;;;;;;;;;2369070;56;21036;-81
2022/08/28 05:08:28;;;;;;;18.10;4.97;;;;;;;;;;2515401;53;21045;-81
2022/08/28 05:10:56;;;;;;;12.68;4.97;;;;;;;;;;2369252;56;21056;-80
2022/08/28 05:13:24;;;;;;;12.82;4.35;;;;;;;;;;2369594;56;21056;-82
2022/08/28 05:15:52;;;;;;;14.18;3.92;;;;;;;;;;2369218;56;21041;-82
2022/08/28 05:18:21;;;;;;;12.23;3.78;;;;;;;;;;2369510;56;21076;-82
2022/08/28 05:20:48;;;;;;;15.15;4.25;;;;;;;;;;2398673;53;21056;-80
2022/08/28 05:23:16;;;;;;;13.07;4.57;;;;;;;;;;2369419;56;21033;-81
2022/08/28 05:25:44;;;;;;;14.77;4.43;;;;;;;;;;2368876;56;21051;-83
2022/08/28 05:28:12;;;;;;;15.80;4.10;;;;;;;;;;2384354;53;21568;-82
2022/08/28 05:30:40;;;;;;;12.30;3.95;;;;;;;;;;2369415;56;21056;-81
2022/08/28 05:33:08;;;;;;;15.05;4.37;;;;;;;;;;2369156;56;21068;-80
2022/08/28 05:35:36;;;;;;;18.15;4.05;;;;;;;;;;2369318;56;21111;-84
2022/08/28 05:38:03;;;;;;;15.18;4.10;;;;;;;;;;2369554;56;21112;-83
2022/08/28 05:40:30;;;;;;;7.15;3.20;;;;;;;;;;2368707;56;21024;-83
2022/08/28 05:42:57;;;;;;;14.40;3.78;;;;;;;;;;2368900;56;21112;-84
2022/08/28 05:45:25;;;;;;;17.27;4.75;;;;;;;;;;2368366;56;21036;-84
2022/08/28 05:47:52;;;;;;;10.48;3.50;;;;;;;;;;2369781;56;21115;-83
2022/08/28 05:50:20;;;;;;;9.68;3.45;;;;;;;;;;2369613;56;21037;-82
2022/08/28 05:52:47;;;;;;;12.30;3.97;;;;;;;;;;2369996;56;21117;-82
2022/08/28 05:55:14;;;;;;;11.60;3.55;;;;;;;;;;2369255;56;21107;-80
2022/08/28 05:57:41;;;;;;;16.45;4.45;;;;;;;;;;2369467;56;21127;-81
2022/08/28 06:00:12;;;;;;;14.05;3.85;;;;;;;;;;2412986;53;21048;-81
2022/08/28 06:02:39;;;;;;;13.88;3.47;;;;;;;;;;2443045;53;21123;-84
2022/08/28 06:05:07;;;;;;;17.70;3.80;;;;;;;;;;2369441;56;21060;-82
2022/08/28 06:07:35;;;;;;;15.38;4.68;;;;;;;;;;2428283;53;21025;-82
2022/08/28 06:10:02;;;;;;;9.50;3.20;;;;;;;;;;2369463;56;21563;-82
2022/08/28 06:12:29;;;;;;;18.85;4.07;;;;;;;;;;2369866;56;21695;-82
2022/08/28 06:14:56;;;;;;;9.77;3.47;;;;;;;;;;2369675;54;21028;-80
2022/08/28 06:17:23;;;;;;;10.95;3.08;;;;;;;;;;2398557;53;21028;-81
2022/08/28 06:19:50;;;;;;;13.73;3.78;;;;;;;;;;2409270;53;21056;-81
2022/08/28 06:22:17;;;;;;;10.68;2.55;;;;;;;;;;2369505;56;21092;-81
2022/08/28 06:24:44;;;;;;;16.33;3.83;;;;;;;;;;2372904;53;21040;-83
2022/08/28 06:27:11;;;;;;;10.32;3.05;;;;;;;;;;2369052;56;21060;-80
2022/08/28 06:29:39;;;;;;;10.48;3.08;;;;;;;;;;2369067;56;21048;-82
2022/08/28 06:32:06;;;;;;;15.23;3.53;;;;;;;;;;2369898;56;21513;-81
2022/08/28 06:34:33;;;;;;;12.80;3.90;;;;;;;;;;2394489;53;21634;-80
2022/08/28 06:37:00;;;;;;;10.20;3.42;;;;;;;;;;2399218;53;21037;-82
2022/08/28 06:39:27;;;;;;;11.07;3.20;;;;;;;;;;2369152;56;21139;-82
2022/08/28 06:41:54;;;;;;;10.68;4.10;;;;;;;;;;2370106;56;21096;-81
2022/08/28 06:44:21;;;;;;;9.48;2.62;;;;;;;;;;2369798;56;21052;-83
2022/08/28 06:46:49;;;;;;;12.90;3.53;;;;;;;;;;2409006;53;21552;-82
2022/08/28 06:49:16;;;;;;;13.23;4.12;;;;;;;;;;2369399;56;21136;-81
2022/08/28 06:51:43;;;;;;;10.70;3.90;;;;;;;;;;2372772;53;21600;-81
2022/08/28 06:54:10;;;;;;;12.00;3.40;;;;;;;;;;2369017;56;21147;-80
2022/08/28 06:56:37;;;;;;;8.80;3.15;;;;;;;;;;2395286;53;21116;-81
2022/08/28 06:59:04;;;;;;;12.13;3.05;;;;;;;;;;2374706;53;21052;-79
2022/08/28 07:01:33;;;;;;;9.90;3.00;;;;;;;;;;2342426;55;71934;-76
2022/08/28 07:04:02;;;;;;;12.70;3.97;;;;;;;;;;2358405;57;21062;-74
2022/08/28 07:06:33;;;;;;;14.27;3.60;;;;;;;;;;2360642;57;21140;-76
2022/08/28 07:09:00;;;;;;;14.90;3.10;;;;;;;;;;2611873;53;21666;-77
2022/08/28 07:11:28;;;;;;;9.93;3.12;;;;;;;;;;2360843;57;21061;-77
2022/08/28 07:13:56;;;;;;;12.70;3.37;;;;;;;;;;2612072;53;21568;-78
2022/08/28 07:16:24;;;;;;;8.95;2.65;;;;;;;;;;2360456;57;21611;-78
2022/08/28 07:18:52;;;;;;;14.05;3.42;;;;;;;;;;2361596;57;21196;-76
2022/08/28 07:21:19;;;;;;;8.93;3.22;;;;;;;;;;2613004;53;21038;-78
2022/08/28 07:23:47;;;;;;;13.35;2.92;;;;;;;;;;2611997;53;21033;-77
2022/08/28 07:26:15;;;;;;;10.10;3.00;;;;;;;;;;2360896;57;21053;-77
2022/08/28 07:28:42;;;;;;;12.88;3.00;;;;;;;;;;2361681;57;21105;-76
2022/08/28 07:31:12;;;;;;;10.27;3.55;;;;;;;;;;2361014;57;21081;-77
2022/08/28 07:33:39;;;;;;;10.93;2.83;;;;;;;;;;2360890;57;21062;-78
2022/08/28 07:36:07;;;;;;;15.13;3.20;;;;;;;;;;2360684;57;21077;-77
2022/08/28 07:38:34;;;;;;;8.63;2.92;;;;;;;;;;2360540;57;21109;-78
2022/08/28 07:41:02;;;;;;;9.73;2.92;;;;;;;;;;2361548;57;21057;-77
2022/08/28 07:46:15;;;;;;;10.32;2.90;;;;;;;;;;2359600;57;21072;-76
2022/08/28 07:48:46;;;;;;;13.10;3.80;;;;;;;;;;2612381;53;21037;-78
2022/08/28 07:51:13;;;;;;;15.10;2.80;;;;;;;;;;2610604;53;21651;-77
2022/08/28 07:53:40;;;;;;;13.15;2.75;;;;;;;;;;2362270;57;21073;-78
2022/08/28 07:56:08;;;;;;;14.48;3.08;;;;;;;;;;2611910;53;21100;-79
2022/08/28 07:58:35;;;;;;;12.55;3.65;;;;;;;;;;2361935;57;21133;-77
2022/08/28 08:01:02;;;;;;;13.95;3.50;;;;;;;;;;2360368;57;21057;-78
2022/08/28 08:03:30;;;;;;;12.05;3.20;;;;;;;;;;2612534;53;21030;-77
2022/08/28 08:05:58;;;;;;;12.07;3.87;;;;;;;;;;2611122;53;21097;-79
2022/08/28 08:08:26;;;;;;;10.20;3.37;;;;;;;;;;2360218;57;21065;-79
2022/08/28 08:10:57;;;;;;;13.70;2.97;;;;;;;;;;2611667;53;21124;-76
2022/08/28 08:13:24;;;;;;;9.52;2.80;;;;;;;;;;2360184;57;21655;-78
2022/08/28 08:15:52;;;;;;;10.27;2.50;;;;;;;;;;2610739;53;21161;-79
2022/08/28 08:18:19;;;;;;;17.37;3.05;;;;;;;;;;2361311;57;21042;-77
2022/08/28 08:20:46;;;;;;;12.02;3.47;;;;;;;;;;2611637;53;21049;-79
2022/08/28 08:23:14;;;;;;;14.90;3.28;;;;;;;;;;2611999;53;21117;-79
2022/08/28 08:25:41;;;;;;;14.30;3.15;;;;;;;;;;2361041;57;21161;-80
2022/08/28 08:28:08;;;;;;;9.75;3.53;;;;;;;;;;2361040;57;21552;-79
2022/08/28 08:30:35;;;;;;;9.07;3.20;;;;;;;;;;2610419;53;21113;-78
2022/08/28 08:33:02;;;;;;;8.43;2.67;;;;;;;;;;2609682;53;21053;-80
2022/08/28 08:35:29;;;;;;;10.48;2.85;;;;;;;;;;2613556;53;21033;-79
2022/08/28 08:37:57;;;;;;;9.32;3.00;;;;;;;;;;2361378;57;21077;-77
2022/08/28 08:40:24;;;;;;;7.57;2.72;;;;;;;;;;2361389;57;21050;-79
2022/08/28 08:42:55;;;;;;;14.07;3.55;;;;;;;;;;2360927;57;21050;-75
2022/08/28 08:45:25;;;;;;;10.20;3.28;;;;;;;;;;2360807;57;21069;-77
2022/08/28 08:47:55;;;;;;;7.07;2.58;;;;;;;;;;2360793;57;21053;-77
2022/08/28 08:50:23;;;;;;;7.78;3.03;;;;;;;;;;2611876;53;21042;-77
2022/08/28 08:53:02;;;;;;;8.93;2.72;;;;;;;;;;2360883;57;21617;-77
2022/08/28 08:55:30;;;;;;;10.88;2.92;;;;;;;;;;2360300;57;21149;-76
2022/08/28 08:58:01;;;;;;;9.52;2.70;;;;;;;;;;2360653;57;21106;-77
2022/08/28 09:00:31;;;;;;;17.65;3.30;;;;;;;;;;2359746;57;21070;-77
2022/08/28 09:03:05;;;;;;;6.93;3.00;;;;;;;;;;2360238;57;21053;-77
2022/08/28 09:05:40;;;;;;;5.72;2.35;;;;;;;;;;2360613;57;21125;-77
2022/08/28 09:08:12;;;;;;;7.40;2.92;;;;;;;;;;2360859;57;21077;-77
2022/08/28 09:10:42;;;;;;;5.57;2.70;;;;;;;;;;2360863;57;21121;-76
2022/08/28 09:13:12;;;;;;;9.07;2.75;;;;;;;;;;2610580;53;21069;-77
2022/08/28 09:15:40;;;;;;;8.98;3.35;;;;;;;;;;2360322;57;21564;-76
2022/08/28 09:18:10;;;;;;;13.90;3.03;;;;;;;;;;2361503;57;21714;-76
2022/08/28 09:20:37;;;;;;;8.93;2.75;;;;;;;;;;2361034;57;21132;-77
2022/08/28 09:23:04;;;;;;;8.50;2.62;;;;;;;;;;2361158;57;21026;-76
2022/08/28 09:25:48;;;;;;;9.18;2.90;;;;;;;;;;2360944;57;21089;-76
2022/08/28 09:28:17;;;;;;;10.60;3.17;;;;;;;;;;2610791;53;21108;-78
2022/08/28 09:30:51;;;;;;;10.48;2.83;;;;;;;;;;2360729;57;21544;-81
2022/08/28 09:33:27;;;;;;;7.70;2.97;;;;;;;;;;2361361;57;21635;-76
2022/08/28 09:35:54;;;;;;;9.82;4.12;;;;;;;;;;2360785;57;21160;-82
2022/08/28 09:38:22;;;;;;;11.90;3.90;;;;;;;;;;2362349;57;21073;-82
2022/08/28 09:43:36;;;;;;;13.77;5.05;;;;;;;;;;2360904;57;21524;-77
2022/08/28 09:46:05;;;;;;;8.38;3.17;;;;;;;;;;2609862;52;21559;-76
2022/08/28 09:48:34;;;;;;;5.57;2.72;;;;;;;;;;2361880;57;21121;-77
2022/08/28 09:51:02;;;;;;;11.00;2.75;;;;;;;;;;2612096;53;21069;-77
2022/08/28 09:53:30;;;;;;;9.85;2.85;;;;;;;;;;2360921;57;21049;-77
2022/08/28 09:55:59;;;;;;;8.95;4.37;;;;;;;;;;2360822;57;21212;-77
2022/08/28 09:58:31;;;;;;;13.02;4.85;;;;;;;;;;2611909;53;21383;-77
2022/08/28 10:01:02;;;;;;;11.35;3.90;;;;;;;;;;2360385;57;21589;-77
2022/08/28 10:03:32;;;;;;;19.02;10.18;;;;;;;;;;2612437;53;21125;-79
2022/08/28 10:06:03;;;;;;;17.05;6.80;;;;;;;;;;2612091;53;21033;-76
2022/08/28 10:08:40;;;;;;;51.80;24.87;;;;;;;;;;2361624;57;21066;-79
2022/08/28 10:11:21;;;;;;;21.98;8.93;;;;;;;;;;2362489;57;21061;-78
2022/08/28 10:13:53;;;;;;;10.90;4.97;;;;;;;;;;2613051;53;22286;-78
2022/08/28 10:16:24;;;;;;;10.48;2.72;;;;;;;;;;2362045;57;21212;-79
2022/08/28 10:18:54;;;;;;;8.02;2.70;;;;;;;;;;2360971;57;21049;-82
2022/08/28 10:21:23;;;;;;;7.87;3.00;;;;;;;;;;2359002;57;21070;-78
2022/08/28 10:24:22;;;;;;;8.98;2.55;;;;;;;;;;2610676;53;21124;-79
2022/08/28 10:26:51;;;;;;;6.32;2.40;;;;;;;;;;2529864;53;21177;-77
2022/08/28 10:29:23;;;;;;;8.50;2.33;;;;;;;;;;2358382;57;21136;-76
2022/08/28 10:31:54;;;;;;;6.43;2.47;;;;;;;;;;2359280;57;21057;-78
2022/08/28 10:34:31;;;;;;;9.30;3.17;;;;;;;;;;2361202;57;21667;-83
2022/08/28 10:37:03;;;;;;;6.60;2.58;;;;;;;;;;2361833;57;21125;-80
2022/08/28 10:39:38;;;;;;;9.90;2.80;;;;;;;;;;2611471;53;21128;-81
2022/08/28 10:42:06;;;;;;;10.68;2.97;;;;;;;;;;2611877;53;21040;-79
2022/08/28 10:44:38;;;;;;;10.52;2.78;;;;;;;;;;2362559;57;21097;-79
2022/08/28 10:47:08;;;;;;;7.72;2.75;;;;;;;;;;2361581;57;21363;-79
2022/08/28 10:49:37;;;;;;;9.00;3.45;;;;;;;;;;2612967;53;21041;-78
2022/08/28 10:52:07;;;;;;;7.10;2.75;;;;;;;;;;2361638;57;21057;-82
2022/08/28 10:54:38;;;;;;;11.73;2.87;;;;;;;;;;2361888;57;21140;-84
2022/08/28 10:57:08;;;;;;;10.95;3.17;;;;;;;;;;2362945;57;21132;-81
2022/08/28 10:59:36;;;;;;;8.63;2.80;;;;;;;;;;2613257;52;21113;-78
2022/08/28 11:02:05;;;;;;;14.87;4.43;;;;;;;;;;2361491;57;21062;-80
2022/08/28 11:04:32;;;;;;;14.38;6.97;;;;;;;;;;2361859;57;21042;-79
2022/08/28 11:07:02;;;;;;;24.45;9.55;;;;;;;;;;2611373;53;21619;-81
2022/08/28 11:09:31;;;;;;;70.07;33.53;;;;;;;;;;2611482;53;21121;-79
2022/08/28 11:12:00;;;;;;;17.20;4.95;;;;;;;;;;2614092;53;21120;-81
2022/08/28 11:14:30;;;;;;;46.60;9.75;;;;;;;;;;2364472;57;21109;-83
2022/08/28 11:17:00;;;;;;;66.07;25.65;;;;;;;;;;2364302;57;21085;-83
2022/08/28 11:19:49;;;;;;;50.42;11.43;;;;;;;;;;2616361;53;21057;-80
2022/08/28 11:22:18;;;;;;;42.28;8.98;;;;;;;;;;2597944;53;21073;-80
2022/08/28 11:27:25;;;;;;;23.67;6.28;;;;;;;;;;2538398;54;22565;-78
2022/08/28 11:30:05;;;;;;;26.00;7.60;;;;;;;;;;2527424;54;21147;-81
2022/08/28 11:32:37;;;;;;;10.02;4.40;;;;;;;;;;2538064;54;21091;-79
2022/08/28 11:35:06;;;;;;;8.80;3.10;;;;;;;;;;2560405;54;21029;-79
2022/08/28 11:37:40;;;;;;;6.90;2.58;;;;;;;;;;2558139;54;21049;-79
2022/08/28 11:40:16;;;;;;;10.50;2.95;;;;;;;;;;2317773;58;21235;-84
2022/08/28 11:42:47;;;;;;;12.63;3.85;;;;;;;;;;2318742;58;21123;-79
2022/08/28 11:45:20;;;;;;;13.82;5.32;;;;;;;;;;2319939;58;21080;-84
2022/08/28 11:47:50;;;;;;;11.43;3.25;;;;;;;;;;2320075;58;21092;-80
2022/08/28 11:50:27;;;;;;;15.27;3.25;;;;;;;;;;2559201;54;21052;-80
2022/08/28 11:53:01;;;;;;;8.60;3.97;;;;;;;;;;2558505;54;21134;-80
2022/08/28 11:55:37;;;;;;;11.90;4.47;;;;;;;;;;2557011;54;21112;-81
2022/08/28 11:58:09;;;;;;;26.87;10.68;;;;;;;;;;2558631;54;21091;-79
2022/08/28 12:00:48;;;;;;;39.00;14.95;;;;;;;;;;2317480;58;21104;-82
2022/08/28 12:03:22;;;;;;;100.10;44.63;;;;;;;;;;2316922;58;21066;-79
2022/08/28 12:05:50;;;;;;;42.15;19.30;;;;;;;;;;2315683;58;21211;-81
2022/08/28 12:08:35;;;;;;;11.43;4.78;;;;;;;;;;2313900;58;21615;-81
2022/08/28 12:11:02;;;;;;;48.95;20.45;;;;;;;;;;2316409;58;21050;-78
2022/08/28 12:14:01;;;;;;;13.48;5.22;;;;;;;;;;2316188;58;21053;-82
2022/08/28 12:16:28;;;;;;;6.20;3.30;;;;;;;;;;2250145;58;21685;-80
2022/08/28 12:19:02;;;;;;;13.77;3.65;;;;;;;;;;2316401;58;21211;-80
2022/08/28 12:21:30;;;;;;;14.80;4.25;;;;;;;;;;2556880;54;21107;-79
2022/08/28 12:23:59;;;;;;;12.60;4.25;;;;;;;;;;2556658;54;21056;-76
2022/08/28 12:26:28;;;;;;;10.75;3.62;;;;;;;;;;2314358;58;21073;-81
2022/08/28 12:28:57;;;;;;;7.87;3.20;;;;;;;;;;2314050;58;21057;-78
2022/08/28 12:34:31;;;;;;;7.55;2.90;;;;;;;;;;2316479;58;21020;-80
2022/08/28 12:36:59;;;;;;;13.93;2.97;;;;;;;;;;2315768;58;21056;-78
2022/08/28 12:39:27;;;;;;;12.15;3.45;;;;;;;;;;2315056;58;21594;-79
2022/08/28 12:41:54;;;;;;;11.38;3.28;;;;;;;;;;2555735;54;21068;-78
2022/08/28 12:44:24;;;;;;;8.90;3.28;;;;;;;;;;2315561;58;21235;-79
2022/08/28 12:46:51;;;;;;;6.05;2.65;;;;;;;;;;2555062;54;21041;-80
2022/08/28 12:49:27;;;;;;;7.10;3.05;;;;;;;;;;2315511;58;21211;-79
2022/08/28 12:52:07;;;;;;;8.00;2.78;;;;;;;;;;2555589;54;21092;-80
2022/08/28 12:54:34;;;;;;;4.97;2.55;;;;;;;;;;2315691;58;21092;-80
2022/08/28 12:59:37;;;;;;;7.75;3.45;;;;;;;;;;2308667;57;27915;-85
2022/08/28 13:02:06;;;;;;;6.50;2.85;;;;;;;;;;2566551;52;21512;-84
2022/08/28 13:04:34;;;;;;;9.52;3.28;;;;;;;;;;2324965;58;21140;-83
2022/08/28 13:07:06;;;;;;;6.00;2.75;;;;;;;;;;2324250;58;21068;-83
2022/08/28 13:09:34;;;;;;;7.93;3.20;;;;;;;;;;2325834;58;21123;-82
2022/08/28 13:12:01;;;;;;;7.35;2.92;;;;;;;;;;2326428;58;21152;-83
2022/08/28 13:14:39;;;;;;;5.47;2.72;;;;;;;;;;2567762;54;21111;-82
2022/08/28 13:17:06;;;;;;;9.20;2.92;;;;;;;;;;2324928;58;21725;-82
2022/08/28 13:19:34;;;;;;;9.00;2.62;;;;;;;;;;2323964;58;21072;-83
2022/08/28 13:22:02;;;;;;;7.90;3.05;;;;;;;;;;2324845;58;21580;-83
2022/08/28 13:24:37;;;;;;;8.85;3.00;;;;;;;;;;2324872;58;21068;-84
2022/08/28 13:27:06;;;;;;;11.43;3.45;;;;;;;;;;2324992;58;21071;-83
2022/08/28 13:29:34;;;;;;;7.45;2.47;;;;;;;;;;2326029;58;21641;-84
2022/08/28 13:32:02;;;;;;;9.32;2.70;;;;;;;;;;2325074;58;21067;-82
2022/08/28 13:34:29;;;;;;;8.43;3.15;;;;;;;;;;2324714;58;21091;-83
2022/08/28 13:36:58;;;;;;;8.35;2.85;;;;;;;;;;2325226;58;21041;-84
2022/08/28 13:39:26;;;;;;;16.85;3.72;;;;;;;;;;2325656;58;21071;-82
2022/08/28 13:41:53;;;;;;;9.10;3.08;;;;;;;;;;2325184;58;21554;-81
2022/08/28 13:44:33;;;;;;;9.93;3.40;;;;;;;;;;2325820;58;21364;-82
2022/08/28 13:47:01;;;;;;;8.43;3.72;;;;;;;;;;2324684;58;21111;-82
2022/08/28 13:49:28;;;;;;;8.95;3.33;;;;;;;;;;2325990;58;21127;-82
2022/08/28 13:51:56;;;;;;;8.02;3.28;;;;;;;;;;2568188;53;21686;-82
2022/08/28 13:54:23;;;;;;;7.95;3.22;;;;;;;;;;2325356;58;21044;-82
2022/08/28 13:56:50;;;;;;;10.10;3.25;;;;;;;;;;2325736;58;22145;-82
2022/08/28 13:59:18;;;;;;;8.95;3.10;;;;;;;;;;2325555;58;21151;-81
2022/08/28 14:04:31;;;;;;;8.60;3.12;;;;;;;;;;2325010;58;21112;-81
2022/08/28 14:06:58;;;;;;;8.45;3.50;;;;;;;;;;2324190;58;21100;-83
2022/08/28 14:09:26;;;;;;;8.48;3.28;;;;;;;;;;2324631;58;21585;-82
2022/08/28 14:11:54;;;;;;;8.88;3.00;;;;;;;;;;2324626;58;21056;-83
2022/08/28 14:14:21;;;;;;;8.85;3.72;;;;;;;;;;2566478;54;21092;-81
2022/08/28 14:16:49;;;;;;;16.90;3.85;;;;;;;;;;2324051;58;21114;-81
2022/08/28 14:19:16;;;;;;;8.20;3.70;;;;;;;;;;2324716;58;21255;-83
2022/08/28 14:21:43;;;;;;;6.87;2.78;;;;;;;;;;2324106;57;21609;-81
2022/08/28 14:24:10;;;;;;;9.38;3.17;;;;;;;;;;2323444;58;21148;-80
2022/08/28 14:26:37;;;;;;;14.02;3.47;;;;;;;;;;2323214;58;21040;-82
2022/08/28 14:29:06;;;;;;;8.43;3.90;;;;;;;;;;2323862;58;21063;-80
2022/08/28 14:31:34;;;;;;;11.55;3.65;;;;;;;;;;2324380;58;21662;-81
2022/08/28 14:34:01;;;;;;;9.20;3.58;;;;;;;;;;2324254;58;21055;-82
2022/08/28 14:36:29;;;;;;;7.93;3.10;;;;;;;;;;2324265;58;21627;-83
2022/08/28 14:38:57;;;;;;;12.63;3.10;;;;;;;;;;2324626;58;21111;-82
2022/08/28 14:41:25;;;;;;;8.20;2.90;;;;;;;;;;2323806;58;21064;-77
2022/08/28 14:43:52;;;;;;;7.45;2.87;;;;;;;;;;2565571;54;21123;-76
2022/08/28 14:46:20;;;;;;;8.82;3.30;;;;;;;;;;2322957;58;21108;-81
2022/08/28 14:48:47;;;;;;;6.90;2.78;;;;;;;;;;2324113;58;21620;-82
2022/08/28 14:51:14;;;;;;;8.15;2.90;;;;;;;;;;2324157;58;21060;-82
2022/08/28 14:53:41;;;;;;;7.07;2.62;;;;;;;;;;2323604;58;21270;-81
2022/08/28 14:56:09;;;;;;;10.82;3.00;;;;;;;;;;2323561;58;21642;-76
2022/08/28 14:58:36;;;;;;;13.93;3.20;;;;;;;;;;2323906;58;21127;-83
2022/08/28 15:01:03;;;;;;;7.28;3.08;;;;;;;;;;2324088;58;21032;-81
2022/08/28 15:03:31;;;;;;;8.82;3.45;;;;;;;;;;2324374;58;21560;-82
2022/08/28 15:06:01;;;;;;;6.47;2.50;;;;;;;;;;2566334;54;21104;-82